Time;durP1;ratioP1;P1;durP2;ratioP2;P2;SDS_P1;SDS_P2;PMS_P1;PMS_P2;Temp;Humidity;BMP_temperature;BMP_pressure;BME280_temperature;BME280_humidity;BME280_pressure;Samples;Min_cycle;Max_cycle;Signal;HPM_P1;HPM_P2
2022/02/21 00:00:20;;;;;;;67.46;40.63;;;;;;;4.44;62.27;100533.22;467612;112;923033;-74
2022/02/21 00:01:23;;;;;;;65.10;39.55;;;;;;;4.42;62.27;100524.45;466293;112;923071;-76
2022/02/21 00:02:26;;;;;;;70.62;37.59;;;;;;;4.41;62.31;100530.86;465892;111;922484;-74
2022/02/21 00:03:30;;;;;;;57.62;36.56;;;;;;;4.40;62.28;100534.59;466744;111;922750;-74
2022/02/21 00:04:33;;;;;;;58.05;36.33;;;;;;;4.40;62.22;100533.75;466558;112;922568;-75
2022/02/21 00:05:37;;;;;;;57.94;34.89;;;;;;;4.38;62.16;100535.78;465929;112;922917;-75
2022/02/21 00:06:43;;;;;;;60.37;35.31;;;;;;;4.35;62.19;100528.89;465615;111;922623;-76
2022/02/21 00:07:46;;;;;;;51.26;32.48;;;;;;;4.34;62.28;100529.91;464917;111;923062;-75
2022/02/21 00:08:49;;;;;;;50.83;33.42;;;;;;;4.34;62.32;100529.91;467055;112;922902;-74
2022/02/21 00:09:52;;;;;;;51.53;32.79;;;;;;;4.34;62.36;100534.45;465379;112;930622;-75
2022/02/21 00:10:55;;;;;;;55.41;36.33;;;;;;;4.35;62.36;100528.05;465990;111;922615;-75
2022/02/21 00:11:58;;;;;;;59.02;36.13;;;;;;;4.34;62.31;100529.91;452523;116;923500;-74
2022/02/21 00:13:01;;;;;;;50.19;31.88;;;;;;;4.33;62.28;100528.21;452416;117;922666;-74
2022/02/21 00:14:05;;;;;;;52.12;33.26;;;;;;;4.32;62.34;100528.38;465786;112;923065;-75
2022/02/21 00:15:09;;;;;;;60.41;35.44;;;;;;;4.31;62.35;100535.63;465490;111;922890;-75
2022/02/21 00:16:12;;;;;;;46.49;30.19;;;;;;;4.30;62.40;100527.73;464495;112;922622;-74
2022/02/21 00:17:16;;;;;;;44.34;30.69;;;;;;;4.30;62.41;100525.03;466306;112;922546;-75
2022/02/21 00:18:19;;;;;;;49.95;30.84;;;;;;;4.30;62.42;100527.73;465902;112;922599;-75
2022/02/21 00:19:22;;;;;;;44.34;28.32;;;;;;;4.28;62.40;100522.50;465483;112;922802;-75
2022/02/21 00:20:25;;;;;;;40.72;29.44;;;;;;;4.27;62.36;100523.52;465677;112;922659;-74
2022/02/21 00:21:33;;;;;;;42.82;29.27;;;;;;;4.26;62.36;100524.52;466549;112;922496;-74
2022/02/21 00:22:33;;;;;;;40.21;28.74;;;;;;;4.23;62.32;100519.49;466407;112;922881;-74
2022/02/21 00:23:37;;;;;;;45.04;29.25;;;;;;;4.22;62.39;100525.91;466407;111;922533;-76
2022/02/21 00:24:40;;;;;;;46.65;29.59;;;;;;;4.21;62.46;100521.52;466868;112;923579;-75
2022/02/21 00:25:43;;;;;;;45.02;29.53;;;;;;;4.22;62.46;100520.50;466489;112;922572;-75
2022/02/21 00:26:47;;;;;;;48.81;29.13;;;;;;;4.21;62.44;100516.12;458318;114;922547;-75
2022/02/21 00:27:50;;;;;;;48.25;29.60;;;;;;;4.19;62.40;100526.23;466953;112;922950;-75
2022/02/21 00:28:53;;;;;;;42.74;27.62;;;;;;;4.17;62.37;100517.49;466812;112;922961;-75
2022/02/21 00:29:56;;;;;;;42.68;27.26;;;;;;;4.15;62.36;100517.66;466379;112;922674;-76
2022/02/21 00:30:59;;;;;;;39.77;26.71;;;;;;;4.13;62.36;100522.41;465884;112;923021;-75
2022/02/21 00:32:03;;;;;;;43.92;29.33;;;;;;;4.11;62.44;100513.63;467325;112;923101;-75
2022/02/21 00:33:06;;;;;;;46.23;28.64;;;;;;;4.12;62.57;100515.33;465745;112;922507;-74
2022/02/21 00:34:10;;;;;;;42.75;27.72;;;;;;;4.12;62.69;100515.33;465554;112;930808;-74
2022/02/21 00:35:13;;;;;;;40.81;27.44;;;;;;;4.13;62.73;100518.87;466432;111;922529;-75
2022/02/21 00:36:17;;;;;;;36.96;26.74;;;;;;;4.13;62.79;100519.71;465896;112;922571;-75
2022/02/21 00:37:20;;;;;;;37.73;25.74;;;;;;;4.14;62.81;100517.83;467361;112;922511;-75
2022/02/21 00:38:23;;;;;;;47.76;29.10;;;;;;;4.14;62.81;100517.83;465955;111;922397;-73
2022/02/21 00:39:26;;;;;;;40.59;27.51;;;;;;;4.14;62.77;100512.43;467083;112;922865;-76
2022/02/21 00:40:29;;;;;;;38.95;27.49;;;;;;;4.14;62.76;100517.83;466067;112;922441;-76
2022/02/21 00:41:32;;;;;;;41.01;27.22;;;;;;;4.12;62.76;100515.33;466208;112;923550;-75
2022/02/21 00:42:35;;;;;;;47.01;27.02;;;;;;;4.12;62.75;100517.18;466207;111;923046;-75
2022/02/21 00:43:38;;;;;;;42.48;27.31;;;;;;;4.11;62.72;100518.19;466485;111;922643;-74
2022/02/21 00:44:41;;;;;;;41.62;27.22;;;;;;;4.09;62.82;100507.56;467297;112;922632;-73
2022/02/21 00:45:44;;;;;;;43.31;27.21;;;;;;;4.10;62.90;100511.95;465188;112;922451;-74
2022/02/21 00:46:47;;;;;;;45.22;28.05;;;;;;;4.11;62.99;100512.80;466242;111;923018;-75
2022/02/21 00:47:50;;;;;;;45.06;27.95;;;;;;;4.12;63.02;100509.08;465561;111;922509;-76
2022/02/21 00:48:53;;;;;;;41.09;28.42;;;;;;;4.13;62.95;100511.61;465305;112;922982;-75
2022/02/21 00:49:56;;;;;;;50.06;27.74;;;;;;;4.14;62.87;100507.87;466591;112;922734;-73
2022/02/21 00:51:00;;;;;;;52.80;28.00;;;;;;;4.14;62.91;100512.43;465282;111;922705;-75
2022/02/21 00:52:03;;;;;;;44.88;28.86;;;;;;;4.14;62.87;100507.03;466169;112;925436;-76
2022/02/21 00:53:06;;;;;;;44.29;28.61;;;;;;;4.13;62.81;100508.08;458898;114;922551;-74
2022/02/21 00:54:09;;;;;;;42.16;27.61;;;;;;;4.12;62.80;100509.08;465443;111;930389;-75
2022/02/21 00:55:13;;;;;;;47.81;30.31;;;;;;;4.11;62.75;100515.48;465735;111;922525;-75
2022/02/21 00:56:16;;;;;;;40.91;29.06;;;;;;;4.10;62.71;100505.70;466041;112;923238;-74
2022/02/21 00:57:20;;;;;;;42.99;28.03;;;;;;;4.07;62.65;100501.52;467353;111;930200;-76
2022/02/21 00:58:23;;;;;;;49.48;29.37;;;;;;;4.05;62.60;100500.84;466803;111;922974;-75
2022/02/21 00:59:26;;;;;;;50.22;30.41;;;;;;;4.03;62.54;100499.31;465843;112;923040;-75
2022/02/21 01:00:29;;;;;;;46.10;29.09;;;;;;;4.01;62.53;100506.77;465819;112;922931;-76
2022/02/21 01:01:32;;;;;;;45.34;29.39;;;;;;;3.98;62.57;100502.55;464981;112;922522;-76
2022/02/21 01:02:36;;;;;;;51.16;28.38;;;;;;;3.96;62.64;100501.05;465930;111;930265;-75
2022/02/21 01:03:39;;;;;;;42.87;28.32;;;;;;;3.95;62.74;100504.77;466350;112;922243;-76
2022/02/21 01:04:42;;;;;;;41.72;27.60;;;;;;;3.95;62.84;100493.97;465958;112;922680;-75
2022/02/21 01:05:45;;;;;;;41.80;28.80;;;;;;;3.95;62.92;100496.67;465457;111;922538;-75
2022/02/21 01:06:48;;;;;;;40.78;28.91;;;;;;;3.95;62.93;100493.97;467461;112;922853;-75
2022/02/21 01:07:52;;;;;;;45.50;29.46;;;;;;;3.95;63.03;100489.42;467012;112;922453;-75
2022/02/21 01:08:55;;;;;;;47.56;29.20;;;;;;;3.95;63.10;100486.72;458304;114;922824;-74
2022/02/21 01:09:58;;;;;;;48.13;30.08;;;;;;;3.96;63.18;100483.02;466812;111;922463;-76
2022/02/21 01:11:01;;;;;;;41.98;29.51;;;;;;;3.96;62.96;100487.56;467520;112;922392;-75
2022/02/21 01:12:05;;;;;;;45.52;29.91;;;;;;;3.96;62.96;100487.56;468297;112;922241;-75
2022/02/21 01:13:08;;;;;;;44.20;29.53;;;;;;;3.95;62.96;100485.88;466680;112;923490;-75
2022/02/21 01:14:12;;;;;;;51.80;30.95;;;;;;;3.94;62.98;100490.43;467269;111;922625;-75
2022/02/21 01:15:15;;;;;;;44.54;30.73;;;;;;;3.93;62.99;100483.34;466747;111;930170;-74
2022/02/21 01:16:18;;;;;;;51.55;31.49;;;;;;;3.93;62.95;100477.11;467538;112;922397;-74
2022/02/21 01:17:22;;;;;;;47.27;30.46;;;;;;;3.91;62.98;100481.86;467211;112;929893;-75
2022/02/21 01:18:25;;;;;;;58.19;34.15;;;;;;;3.92;62.97;100480.81;466783;112;923088;-75
2022/02/21 01:19:28;;;;;;;60.33;38.18;;;;;;;3.92;62.92;100483.52;466156;112;922979;-76
2022/02/21 01:20:31;;;;;;;51.16;33.28;;;;;;;3.90;62.85;100482.87;465350;112;922827;-76
2022/02/21 01:21:36;;;;;;;52.96;33.18;;;;;;;3.90;62.87;100482.87;467462;111;922421;-75
2022/02/21 01:22:39;;;;;;;53.09;34.51;;;;;;;3.88;62.84;100479.49;465743;112;922661;-75
2022/02/21 01:23:43;;;;;;;53.79;33.35;;;;;;;3.87;62.84;100477.80;467673;112;922857;-75
2022/02/21 01:24:46;;;;;;;53.44;33.67;;;;;;;3.87;62.85;100477.80;461830;112;930253;-75
2022/02/21 01:25:49;;;;;;;50.27;33.34;;;;;;;3.86;62.87;100476.15;462769;112;923229;-75
2022/02/21 01:26:52;;;;;;;51.86;34.70;;;;;;;3.85;62.86;100472.61;461199;113;922821;-74
2022/02/21 01:27:55;;;;;;;58.33;35.29;;;;;;;3.85;62.84;100474.46;461849;113;922190;-75
2022/02/21 01:28:58;;;;;;;55.06;32.79;;;;;;;3.83;62.85;100471.08;462991;113;922699;-75
2022/02/21 01:30:04;;;;;;;51.20;31.90;;;;;;;3.82;62.85;100470.23;462396;112;922177;-76
2022/02/21 01:31:07;;;;;;;52.28;32.73;;;;;;;3.81;62.81;100470.41;462582;113;922372;-75
2022/02/21 01:32:10;;;;;;;48.26;31.82;;;;;;;3.80;62.87;100461.50;463311;112;922314;-75
2022/02/21 01:33:14;;;;;;;47.54;32.05;;;;;;;3.81;62.83;100465.01;463034;113;922640;-75
2022/02/21 01:34:17;;;;;;;50.14;31.61;;;;;;;3.80;62.92;100468.75;462793;112;922745;-75
2022/02/21 01:35:21;;;;;;;50.33;32.60;;;;;;;3.79;62.95;100467.91;462353;112;922911;-76
2022/02/21 01:36:24;;;;;;;52.34;32.76;;;;;;;3.79;62.96;100467.91;463530;113;922523;-75
2022/02/21 01:37:27;;;;;;;53.66;33.16;;;;;;;3.79;62.94;100465.20;462417;112;922460;-74
2022/02/21 01:38:30;;;;;;;54.84;34.50;;;;;;;3.79;62.89;100465.20;461974;112;922480;-75
2022/02/21 01:39:34;;;;;;;52.96;33.59;;;;;;;3.79;62.90;100467.91;462830;112;922936;-74
2022/02/21 01:40:38;;;;;;;59.49;35.72;;;;;;;3.77;62.84;100462.67;463819;113;922382;-74
2022/02/21 01:41:41;;;;;;;53.05;35.75;;;;;;;3.76;62.86;100463.69;462294;113;930384;-75
2022/02/21 01:42:44;;;;;;;62.01;35.24;;;;;;;3.76;62.83;100460.98;461791;112;922822;-75
2022/02/21 01:43:47;;;;;;;55.98;34.73;;;;;;;3.75;62.87;100453.91;461320;113;922705;-76
2022/02/21 01:44:51;;;;;;;61.63;35.08;;;;;;;3.75;62.91;100463.84;460592;113;922989;-75
2022/02/21 01:45:54;;;;;;;58.26;34.51;;;;;;;3.74;62.90;100463.04;461306;112;922671;-74
2022/02/21 01:46:57;;;;;;;50.21;32.40;;;;;;;3.74;62.86;100456.80;460520;112;929966;-75
2022/02/21 01:48:00;;;;;;;59.16;34.33;;;;;;;3.73;62.85;100461.34;461176;113;922061;-75
2022/02/21 01:49:05;;;;;;;53.95;34.41;;;;;;;3.72;62.84;100459.66;462147;113;922962;-75
2022/02/21 01:50:08;;;;;;;57.82;35.13;;;;;;;3.71;62.76;100457.98;461053;112;922967;-75
2022/02/21 01:51:13;;;;;;;60.82;33.99;;;;;;;3.70;62.79;100460.84;462041;112;922564;-76
2022/02/21 01:52:18;;;;;;;61.01;34.53;;;;;;;3.69;62.78;100457.30;461586;113;922502;-75
2022/02/21 01:53:21;;;;;;;55.63;34.04;;;;;;;3.68;62.78;100465.58;462352;113;922446;-75
2022/02/21 01:54:24;;;;;;;52.03;33.54;;;;;;;3.67;62.81;100461.20;461809;112;922948;-75
2022/02/21 01:55:27;;;;;;;60.17;35.85;;;;;;;3.67;62.84;100466.59;461729;113;923095;-75
2022/02/21 01:56:31;;;;;;;58.98;35.15;;;;;;;3.66;62.84;100464.91;461603;113;922241;-75
2022/02/21 01:57:34;;;;;;;62.25;35.20;;;;;;;3.65;62.80;100457.82;461304;113;922639;-75
2022/02/21 01:58:37;;;;;;;67.11;39.04;;;;;;;3.65;62.84;100463.21;461883;112;922371;-73
2022/02/21 01:59:40;;;;;;;66.59;38.81;;;;;;;3.64;62.79;100467.77;461876;112;922494;-75
2022/02/21 02:00:44;;;;;;;67.37;37.91;;;;;;;3.64;62.72;100465.06;462604;113;923225;-75
2022/02/21 02:01:48;;;;;;;67.23;38.60;;;;;;;3.62;62.76;100469.81;461370;113;925264;-72
2022/02/21 02:02:51;;;;;;;70.80;39.55;;;;;;;3.61;62.82;100464.58;461910;113;923132;-71
2022/02/21 02:03:54;;;;;;;71.37;40.69;;;;;;;3.62;62.80;100469.81;462160;113;922684;-73
2022/02/21 02:04:57;;;;;;;77.04;42.61;;;;;;;3.61;62.80;100468.13;454950;116;922618;-71
2022/02/21 02:06:00;;;;;;;78.19;41.61;;;;;;;3.61;62.80;100472.67;454176;113;922853;-74
2022/02/21 02:07:05;;;;;;;73.66;42.62;;;;;;;3.59;62.78;100467.44;462204;113;922497;-73
2022/02/21 02:08:09;;;;;;;77.88;42.23;;;;;;;3.58;62.71;100470.33;461937;113;922413;-75
2022/02/21 02:09:12;;;;;;;72.92;42.31;;;;;;;3.56;62.71;100470.50;461246;113;922349;-73
2022/02/21 02:10:15;;;;;;;76.61;43.25;;;;;;;3.56;62.71;100470.50;459913;112;922951;-72
2022/02/21 02:11:19;;;;;;;87.16;48.01;;;;;;;3.55;62.65;100474.20;460140;113;922809;-74
2022/02/21 02:12:22;;;;;;;88.01;47.35;;;;;;;3.54;62.74;100472.52;459545;113;923176;-73
2022/02/21 02:13:25;;;;;;;90.95;50.94;;;;;;;3.54;62.75;100466.28;460543;113;922569;-74
2022/02/21 02:14:34;;;;;;;97.04;52.89;;;;;;;3.53;62.83;100470.83;460893;112;922637;-74
2022/02/21 02:15:37;;;;;;;113.21;57.46;;;;;;;3.53;62.83;100470.83;460758;113;922527;-72
2022/02/21 02:16:40;;;;;;;119.49;66.07;;;;;;;3.52;62.77;100471.86;459970;113;922874;-72
2022/02/21 02:17:45;;;;;;;117.06;66.39;;;;;;;3.51;62.79;100472.88;461520;112;923224;-72
2022/02/21 02:18:49;;;;;;;104.61;58.92;;;;;;;3.49;62.81;100469.49;461804;113;922512;-73
2022/02/21 02:19:52;;;;;;;96.93;56.11;;;;;;;3.49;62.82;100469.49;460998;113;923118;-75
2022/02/21 02:20:56;;;;;;;96.46;57.01;;;;;;;3.49;62.78;100474.04;461025;113;922793;-73
2022/02/21 02:22:08;;;;;;;94.18;53.52;;;;;;;3.47;62.71;100473.39;453957;116;922760;-71
2022/02/21 02:23:12;;;;;;;98.19;54.44;;;;;;;3.47;62.65;100473.39;455845;112;930372;-76
2022/02/21 02:24:15;;;;;;;88.51;51.56;;;;;;;3.44;62.73;100474.56;461542;113;922361;-73
2022/02/21 02:25:18;;;;;;;86.59;49.46;;;;;;;3.43;62.75;100478.27;465723;112;922727;-75
2022/02/21 02:26:23;;;;;;;86.42;49.15;;;;;;;3.41;62.73;100480.30;458054;113;922928;-74
2022/02/21 02:27:26;;;;;;;91.45;50.28;;;;;;;3.41;62.75;100468.69;453468;115;923072;-73
2022/02/21 02:28:29;;;;;;;82.97;49.27;;;;;;;3.39;62.76;100471.54;459206;114;922965;-71
2022/02/21 02:29:32;;;;;;;82.49;47.90;;;;;;;3.39;62.73;100473.39;459019;114;922701;-73
2022/02/21 02:30:35;;;;;;;79.69;45.83;;;;;;;3.38;62.74;100485.17;453548;116;922868;-72
2022/02/21 02:31:38;;;;;;;76.67;46.65;;;;;;;3.35;62.75;100480.98;455885;115;922480;-73
2022/02/21 02:32:46;;;;;;;75.00;45.62;;;;;;;3.33;62.79;100480.30;455853;115;922924;-72
2022/02/21 02:33:46;;;;;;;75.49;43.14;;;;;;;3.33;62.86;100483.00;456103;115;922909;-74
2022/02/21 02:34:52;;;;;;;69.41;41.09;;;;;;;3.32;62.88;100475.92;452858;113;922625;-72
2022/02/21 02:35:55;;;;;;;67.62;40.10;;;;;;;3.30;62.88;100476.12;454755;114;923247;-73
2022/02/21 02:36:58;;;;;;;56.28;37.30;;;;;;;3.30;62.97;100469.88;452604;115;923060;-73
2022/02/21 02:38:04;;;;;;;67.81;39.26;;;;;;;3.31;63.09;100472.38;455301;113;922893;-72
2022/02/21 02:39:07;;;;;;;64.88;38.80;;;;;;;3.30;63.13;100462.64;455441;113;922787;-73
2022/02/21 02:40:12;;;;;;;62.29;37.56;;;;;;;3.31;63.15;100475.08;455000;114;922568;-74
2022/02/21 02:41:15;;;;;;;45.36;31.29;;;;;;;3.30;63.19;100473.42;454105;116;922519;-74
2022/02/21 02:42:18;;;;;;;45.50;30.18;;;;;;;3.31;63.24;100474.23;453823;114;922687;-73
2022/02/21 02:43:22;;;;;;;44.23;30.74;;;;;;;3.32;63.30;100473.23;456226;114;922749;-73
2022/02/21 02:44:26;;;;;;;47.25;30.84;;;;;;;3.33;63.36;100469.52;449204;114;930318;-74
2022/02/21 02:45:29;;;;;;;42.06;29.44;;;;;;;3.33;63.34;100472.22;449115;114;922547;-73
2022/02/21 02:46:32;;;;;;;38.51;27.81;;;;;;;3.34;63.42;100473.91;457282;113;922892;-72
2022/02/21 02:47:37;;;;;;;45.86;28.95;;;;;;;3.34;63.44;100476.61;453197;116;922908;-74
2022/02/21 02:48:40;;;;;;;42.55;28.86;;;;;;;3.35;63.40;100468.36;457926;114;930341;-73
2022/02/21 02:49:44;;;;;;;32.95;25.77;;;;;;;3.36;63.38;100479.98;453863;115;922716;-72
2022/02/21 02:50:47;;;;;;;30.41;23.73;;;;;;;3.37;63.38;100473.55;451269;116;923202;-75
2022/02/21 02:51:50;;;;;;;30.84;24.04;;;;;;;3.38;63.38;100472.55;448685;114;922558;-76
2022/02/21 02:52:53;;;;;;;37.71;26.51;;;;;;;3.39;63.35;100476.09;454202;116;923055;-73
2022/02/21 02:53:56;;;;;;;33.99;25.25;;;;;;;3.40;63.34;100464.30;454813;114;922815;-72
2022/02/21 02:54:59;;;;;;;30.12;22.23;;;;;;;3.40;63.33;100477.77;449486;117;922534;-73
2022/02/21 02:56:03;;;;;;;26.06;21.34;;;;;;;3.40;63.38;100475.92;453647;115;923158;-72
2022/02/21 02:57:06;;;;;;;30.89;23.07;;;;;;;3.42;63.32;100476.57;453859;115;922881;-73
2022/02/21 02:58:09;;;;;;;35.03;24.62;;;;;;;3.42;63.33;100473.06;458186;113;922542;-72
2022/02/21 02:59:12;;;;;;;30.09;22.61;;;;;;;3.43;63.33;100480.95;452966;115;922577;-73
2022/02/21 03:00:17;;;;;;;29.82;22.84;;;;;;;3.42;63.36;100464.98;453502;116;923194;-72
2022/02/21 03:01:20;;;;;;;40.88;26.92;;;;;;;3.42;63.39;100476.57;454830;114;922588;-72
2022/02/21 03:02:23;;;;;;;49.69;27.85;;;;;;;3.42;63.24;100471.19;454720;113;923435;-73
2022/02/21 03:03:27;;;;;;;43.21;27.46;;;;;;;3.42;63.28;100473.88;453636;114;922708;-74
2022/02/21 03:04:30;;;;;;;40.28;25.75;;;;;;;3.42;63.19;100473.88;456185;115;922721;-72
2022/02/21 03:05:33;;;;;;;53.11;29.44;;;;;;;3.43;63.15;100475.56;454398;115;922666;-74
2022/02/21 03:06:37;;;;;;;55.14;31.34;;;;;;;3.42;63.12;100475.77;449395;115;922524;-73
2022/02/21 03:07:40;;;;;;;55.24;30.48;;;;;;;3.41;63.13;100477.61;450717;116;922666;-72
2022/02/21 03:08:43;;;;;;;61.28;31.56;;;;;;;3.40;63.00;100472.38;448522;116;930445;-73
2022/02/21 03:09:46;;;;;;;57.11;32.08;;;;;;;3.39;62.95;100476.93;453209;116;922944;-71
2022/02/21 03:10:49;;;;;;;61.51;31.93;;;;;;;3.39;62.93;100476.09;447241;117;923098;-73
2022/02/21 03:11:53;;;;;;;58.98;31.33;;;;;;;3.38;62.87;100482.48;449301;116;922586;-74
2022/02/21 03:12:56;;;;;;;48.20;29.99;;;;;;;3.36;62.87;100475.41;453530;116;922654;-73
2022/02/21 03:13:59;;;;;;;43.67;28.04;;;;;;;3.34;62.83;100479.30;448748;117;922691;-73
2022/02/21 03:15:02;;;;;;;52.09;29.96;;;;;;;3.32;62.82;100484.01;453428;116;923121;-73
2022/02/21 03:16:06;;;;;;;43.99;28.29;;;;;;;3.30;62.79;100481.50;453891;116;922589;-74
2022/02/21 03:17:09;;;;;;;45.90;28.57;;;;;;;3.29;62.81;100482.52;453460;114;923282;-73
2022/02/21 03:18:12;;;;;;;47.06;29.74;;;;;;;3.29;62.79;100474.42;453181;116;922550;-74
2022/02/21 03:19:16;;;;;;;50.97;30.12;;;;;;;3.28;62.81;100485.36;454055;114;922608;-73
2022/02/21 03:20:19;;;;;;;46.02;28.59;;;;;;;3.27;62.83;100481.83;453713;116;923224;-71
2022/02/21 03:21:23;;;;;;;46.09;30.07;;;;;;;3.26;62.81;100479.30;453691;114;930384;-73
2022/02/21 03:22:26;;;;;;;50.98;29.79;;;;;;;3.25;62.75;100477.64;453413;116;922784;-74
2022/02/21 03:23:29;;;;;;;50.50;28.93;;;;;;;3.24;62.75;100473.25;453704;115;922593;-75
2022/02/21 03:24:32;;;;;;;55.91;31.02;;;;;;;3.22;62.88;100481.50;455366;116;922671;-72
2022/02/21 03:25:35;;;;;;;56.81;30.32;;;;;;;3.21;62.91;100471.73;452524;116;922653;-74
2022/02/21 03:26:38;;;;;;;48.94;28.34;;;;;;;3.21;62.95;100470.88;465180;111;923095;-74
2022/02/21 03:27:43;;;;;;;52.89;30.52;;;;;;;3.21;62.97;100470.88;466149;111;922978;-75
2022/02/21 03:28:46;;;;;;;48.94;30.21;;;;;;;3.20;62.99;100471.89;466218;112;923007;-74
2022/02/21 03:29:49;;;;;;;54.96;31.74;;;;;;;3.19;63.04;100472.92;466151;112;930353;-74
2022/02/21 03:30:53;;;;;;;52.78;29.37;;;;;;;3.18;63.05;100469.39;465763;111;923611;-73
2022/02/21 03:31:56;;;;;;;51.18;29.62;;;;;;;3.17;63.07;100466.86;464843;111;923054;-72
2022/02/21 03:33:01;;;;;;;44.39;27.75;;;;;;;3.17;63.16;100470.39;466158;112;923140;-73
2022/02/21 03:34:04;;;;;;;36.17;25.52;;;;;;;3.17;63.18;100472.24;466274;111;922872;-73
2022/02/21 03:35:08;;;;;;;30.01;22.82;;;;;;;3.17;63.24;100477.63;466150;111;922452;-75
2022/02/21 03:36:12;;;;;;;34.18;24.25;;;;;;;3.17;63.24;100473.09;465943;112;922662;-74
2022/02/21 03:37:15;;;;;;;31.44;23.05;;;;;;;3.18;63.24;100474.77;466754;112;922572;-75
2022/02/21 03:38:18;;;;;;;26.35;21.52;;;;;;;3.18;63.31;100476.63;466011;112;923130;-75
2022/02/21 03:39:22;;;;;;;27.51;20.83;;;;;;;3.18;63.33;100469.39;466266;111;922869;-74
2022/02/21 03:40:26;;;;;;;38.68;24.70;;;;;;;3.19;63.38;100472.92;466336;111;922972;-72
2022/02/21 03:41:30;;;;;;;33.81;25.44;;;;;;;3.20;63.38;100474.58;467001;112;922529;-72
2022/02/21 03:42:34;;;;;;;39.37;28.17;;;;;;;3.19;63.40;100468.38;465674;112;922654;-71
2022/02/21 03:43:37;;;;;;;48.49;30.94;;;;;;;3.21;63.34;100457.41;465907;111;922684;-73
2022/02/21 03:44:41;;;;;;;54.13;33.89;;;;;;;3.21;63.26;100465.49;466951;112;922666;-74
2022/02/21 03:45:44;;;;;;;57.25;35.41;;;;;;;3.19;63.17;100457.61;465699;112;922627;-73
2022/02/21 03:46:47;;;;;;;51.63;33.86;;;;;;;3.20;63.13;100466.50;467349;112;922571;-74
2022/02/21 03:47:52;;;;;;;50.12;32.04;;;;;;;3.18;63.07;100465.84;465845;111;922927;-73
2022/02/21 03:48:56;;;;;;;47.26;32.33;;;;;;;3.17;63.05;100464.16;459128;115;923085;-73
2022/02/21 03:49:59;;;;;;;56.69;31.47;;;;;;;3.17;63.02;100466.86;467591;112;922535;-73
2022/02/21 03:51:02;;;;;;;59.91;33.53;;;;;;;3.15;62.96;100475.09;466527;111;922511;-75
2022/02/21 03:52:06;;;;;;;51.63;31.16;;;;;;;3.15;62.95;100471.56;465172;112;922861;-75
2022/02/21 03:53:09;;;;;;;46.13;31.33;;;;;;;3.13;62.90;100477.14;465532;112;923064;-74
2022/02/21 03:54:12;;;;;;;49.76;31.20;;;;;;;3.12;62.81;100478.14;466370;111;922721;-73
2022/02/21 03:55:16;;;;;;;48.56;30.69;;;;;;;3.10;62.85;100474.77;465020;112;923079;-73
2022/02/21 03:56:21;;;;;;;53.63;31.46;;;;;;;3.10;62.79;100476.62;466136;112;923055;-73
2022/02/21 03:57:24;;;;;;;45.99;30.33;;;;;;;3.07;62.75;100475.13;465171;112;922592;-74
2022/02/21 03:58:27;;;;;;;50.33;32.56;;;;;;;3.06;62.75;100477.97;465478;112;922665;-72
2022/02/21 03:59:30;;;;;;;57.42;36.73;;;;;;;3.05;62.74;100481.67;465483;111;922668;-73
2022/02/21 04:00:33;;;;;;;57.44;37.56;;;;;;;3.03;62.81;100481.02;465692;112;922623;-73
2022/02/21 04:01:36;;;;;;;58.85;34.78;;;;;;;3.01;62.89;100480.33;466206;112;923092;-74
2022/02/21 04:02:40;;;;;;;54.39;35.03;;;;;;;3.00;62.98;100478.64;465268;111;931022;-73
2022/02/21 04:03:43;;;;;;;59.86;37.02;;;;;;;2.99;63.11;100479.65;465962;112;922613;-72
2022/02/21 04:04:46;;;;;;;59.09;37.42;;;;;;;2.99;63.11;100479.65;466191;112;930623;-74
2022/02/21 04:05:49;;;;;;;62.05;36.74;;;;;;;2.99;63.21;100477.80;466406;111;922708;-74
2022/02/21 04:06:54;;;;;;;63.77;39.42;;;;;;;2.98;63.28;100476.11;466104;111;922414;-74
2022/02/21 04:07:57;;;;;;;65.10;40.19;;;;;;;2.98;63.27;100477.99;465962;112;922923;-75
2022/02/21 04:09:00;;;;;;;61.40;38.84;;;;;;;2.98;63.25;100481.50;457845;115;923488;-74
2022/02/21 04:10:04;;;;;;;63.81;38.85;;;;;;;2.97;63.30;100482.53;467003;112;923153;-74
2022/02/21 04:11:07;;;;;;;57.38;39.19;;;;;;;2.98;63.35;100486.88;457842;113;922740;-73
2022/02/21 04:12:11;;;;;;;68.82;40.01;;;;;;;2.98;63.37;100486.88;466558;112;930440;-73
2022/02/21 04:13:14;;;;;;;59.46;37.68;;;;;;;2.98;63.33;100486.88;466710;112;923059;-73
2022/02/21 04:14:17;;;;;;;56.90;36.92;;;;;;;2.99;63.31;100488.58;467050;112;922595;-74
2022/02/21 04:15:20;;;;;;;66.66;42.14;;;;;;;2.99;63.35;100490.42;467303;112;922390;-72
2022/02/21 04:16:31;;;;;;;63.30;40.16;;;;;;;3.00;63.39;100484.87;466642;112;922557;-74
2022/02/21 04:17:41;;;;;;;67.10;40.36;;;;;;;3.01;63.43;100491.95;465333;112;923038;-74
2022/02/21 04:18:44;;;;;;;64.04;36.82;;;;;;;3.04;63.53;100483.52;464986;112;922406;-72
2022/02/21 04:19:47;;;;;;;64.61;38.54;;;;;;;3.07;63.59;100493.97;466052;111;923074;-72
2022/02/21 04:20:51;;;;;;;62.76;37.23;;;;;;;3.11;63.58;100494.47;466141;112;922809;-74
2022/02/21 04:21:56;;;;;;;65.70;38.36;;;;;;;3.13;63.54;100490.61;465787;112;922661;-75
2022/02/21 04:22:59;;;;;;;59.38;36.44;;;;;;;3.18;63.47;100485.55;466202;111;922698;-74
2022/02/21 04:24:02;;;;;;;54.63;32.12;;;;;;;3.21;63.40;100487.89;465787;111;922486;-74
2022/02/21 04:25:08;;;;;;;60.49;35.93;;;;;;;3.25;63.32;100483.03;465955;112;922604;-70
2022/02/21 04:26:11;;;;;;;54.96;33.64;;;;;;;3.27;63.33;100483.67;466643;112;922535;-76
2022/02/21 04:27:14;;;;;;;58.17;34.06;;;;;;;3.30;63.28;100472.58;467441;111;922734;-73
2022/02/21 04:28:18;;;;;;;47.79;31.96;;;;;;;3.33;63.36;100474.91;466748;112;923066;-72
2022/02/21 04:29:21;;;;;;;47.59;31.53;;;;;;;3.35;63.30;100478.30;466950;112;922917;-73
2022/02/21 04:30:28;;;;;;;45.98;30.33;;;;;;;3.39;63.20;100473.39;464941;111;930515;-76
2022/02/21 04:31:31;;;;;;;46.20;28.47;;;;;;;3.40;63.13;100472.38;466597;111;923139;-75
2022/02/21 04:32:39;;;;;;;38.73;26.39;;;;;;;3.42;63.06;100468.48;467040;112;922788;-74
2022/02/21 04:33:42;;;;;;;31.64;23.67;;;;;;;3.45;63.09;100473.55;466560;112;922927;-73
2022/02/21 04:34:45;;;;;;;35.04;25.94;;;;;;;3.49;63.07;100474.88;466564;111;922652;-73
2022/02/21 04:35:48;;;;;;;34.24;24.29;;;;;;;3.52;63.06;100468.33;467075;111;930418;-74
2022/02/21 04:36:52;;;;;;;34.10;24.68;;;;;;;3.55;63.04;100476.89;467826;112;923105;-74
2022/02/21 04:37:56;;;;;;;41.74;25.73;;;;;;;3.59;63.00;100478.23;468233;112;930523;-75
2022/02/21 04:38:59;;;;;;;41.67;26.01;;;;;;;3.63;62.95;100476.05;458783;113;923349;-74
2022/02/21 04:40:05;;;;;;;43.18;28.90;;;;;;;3.65;62.82;100472.14;456384;115;922767;-73
2022/02/21 04:41:09;;;;;;;42.08;25.31;;;;;;;3.66;62.67;100476.53;454387;116;922606;-71
2022/02/21 04:42:12;;;;;;;35.81;24.89;;;;;;;3.67;62.59;100475.52;455396;116;922532;-74
2022/02/21 04:43:15;;;;;;;34.99;23.68;;;;;;;3.69;62.53;100469.97;452147;114;930606;-74
2022/02/21 04:44:18;;;;;;;38.82;25.17;;;;;;;3.68;62.47;100462.89;451142;114;922226;-74
2022/02/21 04:45:23;;;;;;;44.64;28.21;;;;;;;3.68;62.38;100471.82;456676;114;922525;-72
2022/02/21 04:46:26;;;;;;;52.95;28.28;;;;;;;3.67;62.33;100467.44;453250;116;922867;-74
2022/02/21 04:47:29;;;;;;;47.94;27.17;;;;;;;3.67;62.30;100470.13;453184;116;930425;-74
2022/02/21 04:48:32;;;;;;;42.66;26.01;;;;;;;3.67;62.25;100470.13;450574;114;923377;-73